sensor_id;sensor_type;location;lat;lon;timestamp;pressure;altitude;pressure_sealevel;temperature;humidity
76257;BME280;65074;50.436;8.672;2023-11-19T00:00:22;99173.25;;;6.86;100.00
76257;BME280;65074;50.436;8.672;2023-11-19T00:02:49;99160.69;;;6.87;100.00
76257;BME280;65074;50.436;8.672;2023-11-19T00:05:14;99166.03;;;6.87;100.00
76257;BME280;65074;50.436;8.672;2023-11-19T00:07:40;99163.94;;;6.89;100.00
76257;BME280;65074;50.436;8.672;2023-11-19T00:10:14;99157.56;;;6.90;100.00
76257;BME280;65074;50.436;8.672;2023-11-19T00:12:42;99151.50;;;6.94;100.00
76257;BME280;65074;50.436;8.672;2023-11-19T00:15:08;99152.56;;;6.93;100.00
76257;BME280;65074;50.436;8.672;2023-11-19T00:17:40;99151.75;;;6.93;100.00
76257;BME280;65074;50.436;8.672;2023-11-19T00:20:07;99156.03;;;6.94;100.00
76257;BME280;65074;50.436;8.672;2023-11-19T00:22:33;99144.53;;;6.93;100.00
76257;BME280;65074;50.436;8.672;2023-11-19T00:24:59;99143.28;;;6.96;100.00
76257;BME280;65074;50.436;8.672;2023-11-19T00:27:25;99145.94;;;6.96;100.00
76257;BME280;65074;50.436;8.672;2023-11-19T00:29:50;99142.22;;;6.97;100.00
76257;BME280;65074;50.436;8.672;2023-11-19T00:32:15;99121.19;;;7.00;100.00
76257;BME280;65074;50.436;8.672;2023-11-19T00:34:44;99119.53;;;6.99;100.00
76257;BME280;65074;50.436;8.672;2023-11-19T00:37:09;99123.84;;;7.00;100.00
76257;BME280;65074;50.436;8.672;2023-11-19T00:39:34;99116.88;;;6.99;100.00
76257;BME280;65074;50.436;8.672;2023-11-19T00:42:00;99107.81;;;7.00;100.00
76257;BME280;65074;50.436;8.672;2023-11-19T00:44:25;99122.56;;;7.03;100.00
76257;BME280;65074;50.436;8.672;2023-11-19T00:46:51;99120.72;;;7.03;100.00
76257;BME280;65074;50.436;8.672;2023-11-19T00:49:16;99117.81;;;7.05;100.00
76257;BME280;65074;50.436;8.672;2023-11-19T00:51:42;99106.84;;;7.06;100.00
76257;BME280;65074;50.436;8.672;2023-11-19T00:54:07;99106.97;;;7.11;100.00
76257;BME280;65074;50.436;8.672;2023-11-19T00:56:33;99105.94;;;7.12;100.00
76257;BME280;65074;50.436;8.672;2023-11-19T00:58:58;99107.09;;;7.16;100.00
76257;BME280;65074;50.436;8.672;2023-11-19T01:01:25;99091.84;;;7.17;100.00
76257;BME280;65074;50.436;8.672;2023-11-19T01:03:51;99089.19;;;7.17;100.00
76257;BME280;65074;50.436;8.672;2023-11-19T01:06:27;99072.88;;;7.18;100.00
76257;BME280;65074;50.436;8.672;2023-11-19T01:08:52;99066.25;;;7.21;100.00
76257;BME280;65074;50.436;8.672;2023-11-19T01:11:22;99056.38;;;7.21;100.00
76257;BME280;65074;50.436;8.672;2023-11-19T01:13:49;99059.06;;;7.21;100.00
76257;BME280;65074;50.436;8.672;2023-11-19T01:16:15;99047.53;;;7.21;100.00
76257;BME280;65074;50.436;8.672;2023-11-19T01:18:40;99049.63;;;7.19;100.00
76257;BME280;65074;50.436;8.672;2023-11-19T01:21:06;99057.66;;;7.19;100.00
76257;BME280;65074;50.436;8.672;2023-11-19T01:23:31;99056.06;;;7.18;100.00
76257;BME280;65074;50.436;8.672;2023-11-19T01:25:58;99044.06;;;7.20;100.00
76257;BME280;65074;50.436;8.672;2023-11-19T01:28:23;99048.94;;;7.23;100.00
76257;BME280;65074;50.436;8.672;2023-11-19T01:30:52;99065.09;;;7.29;100.00
76257;BME280;65074;50.436;8.672;2023-11-19T01:33:17;99059.53;;;7.30;100.00
76257;BME280;65074;50.436;8.672;2023-11-19T01:35:43;99059.94;;;7.39;100.00
76257;BME280;65074;50.436;8.672;2023-11-19T01:38:08;99059.72;;;7.40;100.00
76257;BME280;65074;50.436;8.672;2023-11-19T01:40:34;99059.47;;;7.42;100.00
76257;BME280;65074;50.436;8.672;2023-11-19T01:43:02;99057.06;;;7.40;100.00
76257;BME280;65074;50.436;8.672;2023-11-19T01:45:28;99051.22;;;7.43;100.00
76257;BME280;65074;50.436;8.672;2023-11-19T01:47:55;99041.91;;;7.46;100.00
76257;BME280;65074;50.436;8.672;2023-11-19T01:50:21;99038.44;;;7.45;100.00
76257;BME280;65074;50.436;8.672;2023-11-19T01:52:47;99031.44;;;7.44;100.00
76257;BME280;65074;50.436;8.672;2023-11-19T01:55:14;99018.88;;;7.45;100.00
76257;BME280;65074;50.436;8.672;2023-11-19T01:57:39;99014.34;;;7.45;100.00
76257;BME280;65074;50.436;8.672;2023-11-19T02:00:07;99009.78;;;7.46;100.00
76257;BME280;65074;50.436;8.672;2023-11-19T02:02:40;99005.81;;;7.48;100.00
76257;BME280;65074;50.436;8.672;2023-11-19T02:05:06;99009.88;;;7.51;100.00
76257;BME280;65074;50.436;8.672;2023-11-19T02:07:31;99007.81;;;7.53;100.00
76257;BME280;65074;50.436;8.672;2023-11-19T02:09:57;99009.66;;;7.52;100.00
76257;BME280;65074;50.436;8.672;2023-11-19T02:12:26;99018.50;;;7.53;100.00
76257;BME280;65074;50.436;8.672;2023-11-19T02:14:53;99018.50;;;7.53;100.00
76257;BME280;65074;50.436;8.672;2023-11-19T02:17:30;99023.88;;;7.53;100.00
76257;BME280;65074;50.436;8.672;2023-11-19T02:20:00;99012.66;;;7.56;100.00
76257;BME280;65074;50.436;8.672;2023-11-19T02:22:26;99018.00;;;7.56;100.00
76257;BME280;65074;50.436;8.672;2023-11-19T02:24:59;99019.66;;;7.57;100.00
76257;BME280;65074;50.436;8.672;2023-11-19T02:27:37;99013.25;;;7.58;100.00
76257;BME280;65074;50.436;8.672;2023-11-19T02:30:02;98999.88;;;7.58;100.00
76257;BME280;65074;50.436;8.672;2023-11-19T02:32:33;98996.13;;;7.59;100.00
76257;BME280;65074;50.436;8.672;2023-11-19T02:34:59;98977.16;;;7.60;100.00
76257;BME280;65074;50.436;8.672;2023-11-19T02:37:24;98982.28;;;7.62;100.00
76257;BME280;65074;50.436;8.672;2023-11-19T02:39:49;98971.31;;;7.63;100.00
76257;BME280;65074;50.436;8.672;2023-11-19T02:42:15;98970.03;;;7.66;100.00
76257;BME280;65074;50.436;8.672;2023-11-19T02:44:44;98968.97;;;7.67;100.00
76257;BME280;65074;50.436;8.672;2023-11-19T02:47:09;98961.03;;;7.72;100.00
76257;BME280;65074;50.436;8.672;2023-11-19T02:49:34;98966.50;;;7.77;100.00
76257;BME280;65074;50.436;8.672;2023-11-19T02:52:01;98963.66;;;7.83;100.00
76257;BME280;65074;50.436;8.672;2023-11-19T02:54:26;98969.34;;;7.87;100.00
76257;BME280;65074;50.436;8.672;2023-11-19T02:56:52;98968.63;;;7.92;100.00
76257;BME280;65074;50.436;8.672;2023-11-19T02:59:24;98968.16;;;7.95;100.00
76257;BME280;65074;50.436;8.672;2023-11-19T03:01:53;98977.88;;;8.01;100.00
76257;BME280;65074;50.436;8.672;2023-11-19T03:04:19;98966.44;;;8.05;100.00
76257;BME280;65074;50.436;8.672;2023-11-19T03:06:48;98959.53;;;8.09;100.00
76257;BME280;65074;50.436;8.672;2023-11-19T03:09:13;98959.03;;;8.12;100.00
76257;BME280;65074;50.436;8.672;2023-11-19T03:11:39;98970.91;;;8.16;100.00
76257;BME280;65074;50.436;8.672;2023-11-19T03:14:04;98968.31;;;8.21;100.00
76257;BME280;65074;50.436;8.672;2023-11-19T03:16:30;98959.78;;;8.24;100.00
76257;BME280;65074;50.436;8.672;2023-11-19T03:18:55;98952.44;;;8.31;100.00
76257;BME280;65074;50.436;8.672;2023-11-19T03:21:29;98937.97;;;8.32;100.00
76257;BME280;65074;50.436;8.672;2023-11-19T03:23:54;98938.56;;;8.34;100.00
76257;BME280;65074;50.436;8.672;2023-11-19T03:26:20;98946.91;;;8.38;100.00
76257;BME280;65074;50.436;8.672;2023-11-19T03:28:46;98948.53;;;8.39;100.00
76257;BME280;65074;50.436;8.672;2023-11-19T03:31:11;98944.78;;;8.40;100.00
76257;BME280;65074;50.436;8.672;2023-11-19T03:33:36;98958.16;;;8.40;100.00
76257;BME280;65074;50.436;8.672;2023-11-19T03:36:02;98944.28;;;8.43;100.00
76257;BME280;65074;50.436;8.672;2023-11-19T03:38:28;98949.16;;;8.46;100.00
76257;BME280;65074;50.436;8.672;2023-11-19T03:40:53;98938.19;;;8.47;100.00
76257;BME280;65074;50.436;8.672;2023-11-19T03:43:18;98951.59;;;8.47;100.00
76257;BME280;65074;50.436;8.672;2023-11-19T03:45:44;98951.38;;;8.49;100.00
76257;BME280;65074;50.436;8.672;2023-11-19T03:48:10;98941.94;;;8.46;100.00
76257;BME280;65074;50.436;8.672;2023-11-19T03:50:35;98941.63;;;8.43;100.00
76257;BME280;65074;50.436;8.672;2023-11-19T03:53:00;98947.53;;;8.45;100.00
76257;BME280;65074;50.436;8.672;2023-11-19T03:55:26;98944.84;;;8.45;100.00
76257;BME280;65074;50.436;8.672;2023-11-19T03:57:51;98941.13;;;8.46;100.00
76257;BME280;65074;50.436;8.672;2023-11-19T04:00:17;98953.03;;;8.55;100.00
76257;BME280;65074;50.436;8.672;2023-11-19T04:02:43;98939.06;;;8.53;100.00
76257;BME280;65074;50.436;8.672;2023-11-19T04:05:09;98934.28;;;8.55;100.00
76257;BME280;65074;50.436;8.672;2023-11-19T04:07:35;98924.69;;;8.59;100.00
76257;BME280;65074;50.436;8.672;2023-11-19T04:10:00;98925.75;;;8.58;100.00
76257;BME280;65074;50.436;8.672;2023-11-19T04:12:26;98909.66;;;8.58;100.00
76257;BME280;65074;50.436;8.672;2023-11-19T04:14:51;98919.00;;;8.56;100.00
76257;BME280;65074;50.436;8.672;2023-11-19T04:17:18;98921.88;;;8.49;100.00
76257;BME280;65074;50.436;8.672;2023-11-19T04:19:43;98929.19;;;8.37;100.00
76257;BME280;65074;50.436;8.672;2023-11-19T04:22:08;98926.50;;;8.37;100.00
76257;BME280;65074;50.436;8.672;2023-11-19T04:24:34;98920.34;;;8.36;100.00
76257;BME280;65074;50.436;8.672;2023-11-19T04:27:00;98912.78;;;8.33;100.00
76257;BME280;65074;50.436;8.672;2023-11-19T04:29:25;98898.28;;;8.29;100.00
76257;BME280;65074;50.436;8.672;2023-11-19T04:31:52;98902.94;;;8.22;100.00
76257;BME280;65074;50.436;8.672;2023-11-19T04:34:18;98907.91;;;8.14;100.00
76257;BME280;65074;50.436;8.672;2023-11-19T04:36:43;98908.09;;;8.07;100.00
76257;BME280;65074;50.436;8.672;2023-11-19T04:39:09;98910.69;;;8.02;100.00
76257;BME280;65074;50.436;8.672;2023-11-19T04:41:35;98904.81;;;8.05;100.00
76257;BME280;65074;50.436;8.672;2023-11-19T04:44:01;98905.22;;;8.14;100.00
76257;BME280;65074;50.436;8.672;2023-11-19T04:46:27;98894.91;;;8.22;100.00
76257;BME280;65074;50.436;8.672;2023-11-19T04:48:52;98905.56;;;8.34;100.00
76257;BME280;65074;50.436;8.672;2023-11-19T04:51:17;98906.75;;;8.43;100.00
76257;BME280;65074;50.436;8.672;2023-11-19T04:53:43;98906.34;;;8.51;100.00
76257;BME280;65074;50.436;8.672;2023-11-19T04:56:09;98902.44;;;8.59;100.00
76257;BME280;65074;50.436;8.672;2023-11-19T04:58:35;98918.91;;;8.67;100.00
76257;BME280;65074;50.436;8.672;2023-11-19T05:01:01;98921.41;;;8.74;100.00
76257;BME280;65074;50.436;8.672;2023-11-19T05:03:27;98916.41;;;8.82;100.00
76257;BME280;65074;50.436;8.672;2023-11-19T05:05:52;98912.75;;;8.88;100.00
76257;BME280;65074;50.436;8.672;2023-11-19T05:08:17;98916.63;;;8.97;100.00
76257;BME280;65074;50.436;8.672;2023-11-19T05:10:42;98923.41;;;9.05;100.00
76257;BME280;65074;50.436;8.672;2023-11-19T05:13:08;98925.06;;;9.11;100.00
76257;BME280;65074;50.436;8.672;2023-11-19T05:15:33;98930.22;;;9.12;100.00
76257;BME280;65074;50.436;8.672;2023-11-19T05:17:59;98922.44;;;9.16;100.00
76257;BME280;65074;50.436;8.672;2023-11-19T05:20:24;98918.97;;;9.15;100.00
76257;BME280;65074;50.436;8.672;2023-11-19T05:22:49;98924.09;;;9.17;100.00
76257;BME280;65074;50.436;8.672;2023-11-19T05:25:17;98920.03;;;9.14;100.00
76257;BME280;65074;50.436;8.672;2023-11-19T05:27:42;98908.19;;;9.10;100.00
76257;BME280;65074;50.436;8.672;2023-11-19T05:30:07;98918.03;;;9.05;100.00
76257;BME280;65074;50.436;8.672;2023-11-19T05:32:33;98909.31;;;8.93;100.00
76257;BME280;65074;50.436;8.672;2023-11-19T05:34:59;98914.28;;;8.84;100.00
76257;BME280;65074;50.436;8.672;2023-11-19T05:37:24;98906.09;;;8.74;100.00
76257;BME280;65074;50.436;8.672;2023-11-19T05:39:50;98909.88;;;8.73;100.00
76257;BME280;65074;50.436;8.672;2023-11-19T05:42:16;98898.06;;;8.74;100.00
76257;BME280;65074;50.436;8.672;2023-11-19T05:44:41;98898.31;;;8.73;100.00
76257;BME280;65074;50.436;8.672;2023-11-19T05:47:06;98907.00;;;8.80;100.00
76257;BME280;65074;50.436;8.672;2023-11-19T05:49:32;98898.88;;;8.75;100.00
76257;BME280;65074;50.436;8.672;2023-11-19T05:51:58;98905.47;;;8.67;100.00
76257;BME280;65074;50.436;8.672;2023-11-19T05:54:23;98902.00;;;8.67;100.00
76257;BME280;65074;50.436;8.672;2023-11-19T05:56:48;98904.03;;;8.60;100.00
76257;BME280;65074;50.436;8.672;2023-11-19T05:59:14;98904.50;;;8.52;100.00
76257;BME280;65074;50.436;8.672;2023-11-19T06:01:43;98901.16;;;8.44;100.00
76257;BME280;65074;50.436;8.672;2023-11-19T06:04:09;98915.63;;;8.43;100.00
76257;BME280;65074;50.436;8.672;2023-11-19T06:06:34;98918.88;;;8.45;100.00
76257;BME280;65074;50.436;8.672;2023-11-19T06:09:00;98908.03;;;8.57;100.00
76257;BME280;65074;50.436;8.672;2023-11-19T06:11:29;98921.84;;;8.87;100.00
76257;BME280;65074;50.436;8.672;2023-11-19T06:13:55;98926.22;;;9.15;100.00
76257;BME280;65074;50.436;8.672;2023-11-19T06:16:21;98929.78;;;9.21;100.00
76257;BME280;65074;50.436;8.672;2023-11-19T06:18:46;98943.88;;;9.33;100.00
76257;BME280;65074;50.436;8.672;2023-11-19T06:21:12;98935.28;;;9.36;100.00
76257;BME280;65074;50.436;8.672;2023-11-19T06:23:38;98937.97;;;9.36;100.00
76257;BME280;65074;50.436;8.672;2023-11-19T06:26:03;98936.44;;;9.40;100.00
76257;BME280;65074;50.436;8.672;2023-11-19T06:28:30;98932.16;;;9.44;100.00
76257;BME280;65074;50.436;8.672;2023-11-19T06:30:56;98937.03;;;9.47;100.00
76257;BME280;65074;50.436;8.672;2023-11-19T06:33:23;98939.88;;;9.62;100.00
76257;BME280;65074;50.436;8.672;2023-11-19T06:35:48;98932.94;;;9.66;100.00
76257;BME280;65074;50.436;8.672;2023-11-19T06:38:14;98940.44;;;9.64;100.00
76257;BME280;65074;50.436;8.672;2023-11-19T06:40:40;98931.06;;;9.66;100.00
76257;BME280;65074;50.436;8.672;2023-11-19T06:43:06;98942.56;;;9.62;100.00
76257;BME280;65074;50.436;8.672;2023-11-19T06:45:33;98940.94;;;9.61;100.00
76257;BME280;65074;50.436;8.672;2023-11-19T06:48:01;98944.16;;;9.58;100.00
76257;BME280;65074;50.436;8.672;2023-11-19T06:50:28;98951.22;;;9.69;100.00
76257;BME280;65074;50.436;8.672;2023-11-19T06:52:53;98944.84;;;9.75;100.00
76257;BME280;65074;50.436;8.672;2023-11-19T06:55:19;98950.63;;;9.89;100.00
76257;BME280;65074;50.436;8.672;2023-11-19T06:57:44;98948.84;;;9.99;100.00
76257;BME280;65074;50.436;8.672;2023-11-19T07:00:10;98956.13;;;10.04;100.00
76257;BME280;65074;50.436;8.672;2023-11-19T07:02:36;98950.53;;;10.10;100.00
76257;BME280;65074;50.436;8.672;2023-11-19T07:05:02;98955.69;;;10.12;100.00
76257;BME280;65074;50.436;8.672;2023-11-19T07:07:30;98945.66;;;10.02;100.00
76257;BME280;65074;50.436;8.672;2023-11-19T07:09:56;98947.75;;;10.00;100.00
76257;BME280;65074;50.436;8.672;2023-11-19T07:12:21;98948.56;;;10.01;100.00
76257;BME280;65074;50.436;8.672;2023-11-19T07:14:46;98947.56;;;10.07;100.00
76257;BME280;65074;50.436;8.672;2023-11-19T07:17:12;98959.59;;;10.31;100.00
76257;BME280;65074;50.436;8.672;2023-11-19T07:19:37;98961.06;;;10.43;100.00
76257;BME280;65074;50.436;8.672;2023-11-19T07:22:03;98958.13;;;10.50;100.00
76257;BME280;65074;50.436;8.672;2023-11-19T07:24:29;98962.53;;;10.61;100.00
76257;BME280;65074;50.436;8.672;2023-11-19T07:26:54;98966.56;;;10.64;100.00
76257;BME280;65074;50.436;8.672;2023-11-19T07:29:20;98969.25;;;10.64;100.00
76257;BME280;65074;50.436;8.672;2023-11-19T07:31:49;98963.66;;;10.70;100.00
76257;BME280;65074;50.436;8.672;2023-11-19T07:34:14;98960.75;;;10.82;100.00
76257;BME280;65074;50.436;8.672;2023-11-19T07:36:40;98955.91;;;10.79;100.00
76257;BME280;65074;50.436;8.672;2023-11-19T07:39:06;98972.34;;;10.87;100.00
76257;BME280;65074;50.436;8.672;2023-11-19T07:41:32;98955.47;;;11.02;100.00
76257;BME280;65074;50.436;8.672;2023-11-19T07:43:57;98958.50;;;11.10;100.00
76257;BME280;65074;50.436;8.672;2023-11-19T07:46:23;98955.00;;;11.15;100.00
76257;BME280;65074;50.436;8.672;2023-11-19T07:48:50;98968.25;;;11.32;100.00
76257;BME280;65074;50.436;8.672;2023-11-19T07:51:15;98979.91;;;11.47;100.00
76257;BME280;65074;50.436;8.672;2023-11-19T07:53:41;98977.78;;;11.59;100.00
76257;BME280;65074;50.436;8.672;2023-11-19T07:56:07;98968.66;;;11.70;100.00
76257;BME280;65074;50.436;8.672;2023-11-19T07:58:33;98966.50;;;11.67;100.00
76257;BME280;65074;50.436;8.672;2023-11-19T08:00:58;98964.06;;;11.66;100.00
76257;BME280;65074;50.436;8.672;2023-11-19T08:03:24;98977.81;;;11.64;100.00
76257;BME280;65074;50.436;8.672;2023-11-19T08:05:49;98982.63;;;11.57;100.00
76257;BME280;65074;50.436;8.672;2023-11-19T08:08:15;98976.16;;;11.58;100.00
76257;BME280;65074;50.436;8.672;2023-11-19T08:10:40;98983.72;;;11.66;100.00
76257;BME280;65074;50.436;8.672;2023-11-19T08:13:06;99000.22;;;11.70;100.00
76257;BME280;65074;50.436;8.672;2023-11-19T08:15:32;98979.16;;;11.67;100.00
76257;BME280;65074;50.436;8.672;2023-11-19T08:17:57;98984.00;;;11.65;100.00
76257;BME280;65074;50.436;8.672;2023-11-19T08:20:23;98987.25;;;11.67;100.00
76257;BME280;65074;50.436;8.672;2023-11-19T08:22:49;98980.81;;;11.78;100.00
76257;BME280;65074;50.436;8.672;2023-11-19T08:25:14;98976.78;;;11.81;100.00
76257;BME280;65074;50.436;8.672;2023-11-19T08:27:39;98967.88;;;11.85;100.00
76257;BME280;65074;50.436;8.672;2023-11-19T08:30:05;98972.50;;;11.85;100.00
76257;BME280;65074;50.436;8.672;2023-11-19T08:32:32;98968.72;;;11.91;100.00
76257;BME280;65074;50.436;8.672;2023-11-19T08:34:57;98977.91;;;11.95;100.00
76257;BME280;65074;50.436;8.672;2023-11-19T08:37:22;98973.59;;;12.04;100.00
76257;BME280;65074;50.436;8.672;2023-11-19T08:39:48;98984.38;;;12.14;100.00
76257;BME280;65074;50.436;8.672;2023-11-19T08:42:14;98967.41;;;12.18;100.00
76257;BME280;65074;50.436;8.672;2023-11-19T08:44:40;98971.97;;;12.23;100.00
76257;BME280;65074;50.436;8.672;2023-11-19T08:47:09;98963.88;;;12.28;100.00
76257;BME280;65074;50.436;8.672;2023-11-19T08:49:34;98961.72;;;12.30;100.00
76257;BME280;65074;50.436;8.672;2023-11-19T08:52:00;98954.44;;;12.35;100.00
76257;BME280;65074;50.436;8.672;2023-11-19T08:54:25;98968.22;;;12.44;100.00
76257;BME280;65074;50.436;8.672;2023-11-19T08:56:51;98958.22;;;12.50;100.00
76257;BME280;65074;50.436;8.672;2023-11-19T08:59:16;98965.22;;;12.51;100.00
76257;BME280;65074;50.436;8.672;2023-11-19T09:01:42;98976.03;;;12.56;100.00
76257;BME280;65074;50.436;8.672;2023-11-19T09:04:07;98971.69;;;12.65;98.05
76257;BME280;65074;50.436;8.672;2023-11-19T09:06:33;98977.63;;;12.62;100.00
76257;BME280;65074;50.436;8.672;2023-11-19T09:08:58;98974.13;;;12.61;96.31
76257;BME280;65074;50.436;8.672;2023-11-19T09:11:27;98973.56;;;12.69;97.24
76257;BME280;65074;50.436;8.672;2023-11-19T09:13:52;98978.41;;;12.72;92.97
76257;BME280;65074;50.436;8.672;2023-11-19T09:16:18;98980.03;;;12.78;94.13
76257;BME280;65074;50.436;8.672;2023-11-19T09:18:43;98961.41;;;12.82;90.78
76257;BME280;65074;50.436;8.672;2023-11-19T09:21:11;98958.69;;;12.87;93.39
76257;BME280;65074;50.436;8.672;2023-11-19T09:23:36;98966.78;;;12.87;91.55
76257;BME280;65074;50.436;8.672;2023-11-19T09:26:05;98971.66;;;12.90;88.47
76257;BME280;65074;50.436;8.672;2023-11-19T09:28:30;98975.16;;;12.95;86.98
76257;BME280;65074;50.436;8.672;2023-11-19T09:30:56;98977.25;;;13.03;85.42
76257;BME280;65074;50.436;8.672;2023-11-19T09:33:21;98982.69;;;13.09;85.54
76257;BME280;65074;50.436;8.672;2023-11-19T09:35:46;98982.41;;;13.10;84.49
76257;BME280;65074;50.436;8.672;2023-11-19T09:38:14;98980.53;;;13.11;82.08
76257;BME280;65074;50.436;8.672;2023-11-19T09:40:40;98988.88;;;13.19;80.88
76257;BME280;65074;50.436;8.672;2023-11-19T09:43:06;98986.69;;;13.26;81.68
76257;BME280;65074;50.436;8.672;2023-11-19T09:45:42;98990.75;;;13.14;79.08
76257;BME280;65074;50.436;8.672;2023-11-19T09:48:12;98996.44;;;13.22;78.28
76257;BME280;65074;50.436;8.672;2023-11-19T09:50:39;98995.91;;;13.20;80.08
76257;BME280;65074;50.436;8.672;2023-11-19T09:53:05;99004.22;;;13.29;80.20
76257;BME280;65074;50.436;8.672;2023-11-19T09:55:31;98985.34;;;13.24;80.30
76257;BME280;65074;50.436;8.672;2023-11-19T09:57:57;98993.72;;;13.22;78.72
76257;BME280;65074;50.436;8.672;2023-11-19T10:00:27;98979.41;;;13.22;76.05
76257;BME280;65074;50.436;8.672;2023-11-19T10:02:53;98977.22;;;13.29;75.80
76257;BME280;65074;50.436;8.672;2023-11-19T10:05:20;98975.31;;;13.29;74.94
76257;BME280;65074;50.436;8.672;2023-11-19T10:07:47;98975.88;;;13.26;74.73
76257;BME280;65074;50.436;8.672;2023-11-19T10:10:12;98977.22;;;13.24;73.30
76257;BME280;65074;50.436;8.672;2023-11-19T10:12:43;98981.00;;;13.33;74.08
76257;BME280;65074;50.436;8.672;2023-11-19T10:15:17;98993.94;;;13.31;71.23
76257;BME280;65074;50.436;8.672;2023-11-19T10:17:44;98970.72;;;13.35;72.39
76257;BME280;65074;50.436;8.672;2023-11-19T10:20:10;98972.06;;;13.37;72.40
76257;BME280;65074;50.436;8.672;2023-11-19T10:22:38;98976.09;;;13.40;73.21
76257;BME280;65074;50.436;8.672;2023-11-19T10:25:25;98983.09;;;13.46;73.07
76257;BME280;65074;50.436;8.672;2023-11-19T10:27:50;98977.13;;;13.49;71.70
76257;BME280;65074;50.436;8.672;2023-11-19T10:30:21;98955.50;;;13.54;71.58
76257;BME280;65074;50.436;8.672;2023-11-19T10:35:34;98982.88;;;13.37;72.13
76257;BME280;65074;50.436;8.672;2023-11-19T10:38:13;98966.09;;;13.40;72.19
76257;BME280;65074;50.436;8.672;2023-11-19T10:40:40;98961.72;;;13.49;72.21
76257;BME280;65074;50.436;8.672;2023-11-19T10:43:05;98960.59;;;13.55;73.28
76257;BME280;65074;50.436;8.672;2023-11-19T10:45:33;98954.84;;;13.72;73.70
76257;BME280;65074;50.436;8.672;2023-11-19T10:47:59;98951.94;;;13.58;72.07
76257;BME280;65074;50.436;8.672;2023-11-19T10:50:25;98958.41;;;13.67;71.79
76257;BME280;65074;50.436;8.672;2023-11-19T10:52:54;98957.84;;;14.09;69.99
76257;BME280;65074;50.436;8.672;2023-11-19T10:55:26;98951.56;;;14.53;69.29
76257;BME280;65074;50.436;8.672;2023-11-19T10:57:52;98935.94;;;14.73;66.77
76257;BME280;65074;50.436;8.672;2023-11-19T11:00:23;98942.63;;;14.81;65.80
76257;BME280;65074;50.436;8.672;2023-11-19T11:02:54;98941.81;;;15.04;64.52
76257;BME280;65074;50.436;8.672;2023-11-19T11:05:22;98929.84;;;15.10;64.38
76257;BME280;65074;50.436;8.672;2023-11-19T11:07:48;98939.16;;;14.99;64.30
76257;BME280;65074;50.436;8.672;2023-11-19T11:10:16;98938.56;;;15.26;64.39
76257;BME280;65074;50.436;8.672;2023-11-19T11:12:42;98939.97;;;15.66;62.32
76257;BME280;65074;50.436;8.672;2023-11-19T11:15:10;98940.25;;;16.01;60.65
76257;BME280;65074;50.436;8.672;2023-11-19T11:17:39;98929.56;;;15.91;59.04
76257;BME280;65074;50.436;8.672;2023-11-19T11:20:05;98930.59;;;16.27;58.95
76257;BME280;65074;50.436;8.672;2023-11-19T11:22:44;98926.75;;;17.20;57.01
76257;BME280;65074;50.436;8.672;2023-11-19T11:25:28;98936.72;;;17.88;54.16
76257;BME280;65074;50.436;8.672;2023-11-19T11:28:41;98933.66;;;18.25;52.46
76257;BME280;65074;50.436;8.672;2023-11-19T11:31:51;98941.44;;;17.19;54.01
76257;BME280;65074;50.436;8.672;2023-11-19T11:39:35;98933.16;;;18.67;49.37
76257;BME280;65074;50.436;8.672;2023-11-19T11:45:08;98943.09;;;19.51;48.44
76257;BME280;65074;50.436;8.672;2023-11-19T11:50:15;98939.78;;;19.14;46.80
76257;BME280;65074;50.436;8.672;2023-11-19T11:55:33;98944.44;;;19.62;46.19
76257;BME280;65074;50.436;8.672;2023-11-19T11:57:59;98951.00;;;19.61;46.24
76257;BME280;65074;50.436;8.672;2023-11-19T12:00:38;98952.13;;;18.50;48.65
76257;BME280;65074;50.436;8.672;2023-11-19T12:03:05;98940.16;;;18.60;49.58
76257;BME280;65074;50.436;8.672;2023-11-19T12:05:32;98931.59;;;19.14;47.95
76257;BME280;65074;50.436;8.672;2023-11-19T12:08:03;98911.31;;;19.46;47.57
76257;BME280;65074;50.436;8.672;2023-11-19T12:10:31;98927.91;;;20.44;46.44
76257;BME280;65074;50.436;8.672;2023-11-19T12:13:01;98924.97;;;19.46;46.34
76257;BME280;65074;50.436;8.672;2023-11-19T12:15:27;98931.44;;;19.67;46.84
76257;BME280;65074;50.436;8.672;2023-11-19T12:17:56;98917.97;;;20.39;44.62
76257;BME280;65074;50.436;8.672;2023-11-19T12:20:23;98923.41;;;19.88;46.20
76257;BME280;65074;50.436;8.672;2023-11-19T12:22:49;98909.78;;;20.31;45.57
76257;BME280;65074;50.436;8.672;2023-11-19T12:25:16;98897.47;;;21.09;43.29
76257;BME280;65074;50.436;8.672;2023-11-19T12:27:49;98891.63;;;20.81;44.14
76257;BME280;65074;50.436;8.672;2023-11-19T12:30:33;98903.91;;;21.13;44.15
76257;BME280;65074;50.436;8.672;2023-11-19T12:32:58;98899.81;;;21.48;41.96
76257;BME280;65074;50.436;8.672;2023-11-19T12:35:24;98900.91;;;20.51;44.45
76257;BME280;65074;50.436;8.672;2023-11-19T12:37:50;98892.41;;;21.28;44.00
76257;BME280;65074;50.436;8.672;2023-11-19T12:40:25;98891.50;;;21.45;42.28
76257;BME280;65074;50.436;8.672;2023-11-19T12:42:52;98903.13;;;21.62;41.44
76257;BME280;65074;50.436;8.672;2023-11-19T12:45:18;98883.53;;;21.52;41.53
76257;BME280;65074;50.436;8.672;2023-11-19T12:47:46;98876.13;;;20.56;43.31
76257;BME280;65074;50.436;8.672;2023-11-19T12:50:17;98869.88;;;21.72;41.25
76257;BME280;65074;50.436;8.672;2023-11-19T12:52:55;98876.81;;;21.49;40.77
76257;BME280;65074;50.436;8.672;2023-11-19T12:55:28;98879.69;;;21.23;40.91
76257;BME280;65074;50.436;8.672;2023-11-19T12:57:55;98862.38;;;19.92;43.57
76257;BME280;65074;50.436;8.672;2023-11-19T13:00:22;98866.88;;;20.23;43.42
76257;BME280;65074;50.436;8.672;2023-11-19T13:02:52;98865.25;;;20.30;43.05
76257;BME280;65074;50.436;8.672;2023-11-19T13:05:28;98865.41;;;20.80;42.81
76257;BME280;65074;50.436;8.672;2023-11-19T13:08:07;98866.53;;;21.87;40.68
76257;BME280;65074;50.436;8.672;2023-11-19T13:11:03;98866.94;;;20.98;41.01
76257;BME280;65074;50.436;8.672;2023-11-19T13:13:28;98858.25;;;19.04;44.61